Time;durP1;ratioP1;P1;durP2;ratioP2;P2;SDS_P1;SDS_P2;PMS_P1;PMS_P2;Temp;Humidity;BMP_temperature;BMP_pressure;BME280_temperature;BME280_humidity;BME280_pressure;Samples;Min_cycle;Max_cycle;Signal;HPM_P1;HPM_P2
2021/11/17 02:28:17;;;;;;;108.10;28.57;;;6.20;99.90;;;;;;5150297;27;20275;-57
2021/11/17 02:30:58;;;;;;;104.70;28.27;;;6.20;99.90;;;;;;5145974;27;20288;-58
2021/11/17 02:33:46;;;;;;;109.30;28.53;;;6.20;99.90;;;;;;5149100;27;20197;-58
2021/11/17 02:36:33;;;;;;;112.07;29.10;;;6.20;99.90;;;;;;5147437;27;20244;-58
2021/11/17 02:39:17;;;;;;;107.87;29.77;;;6.30;99.90;;;;;;5137730;27;20196;-58
2021/11/17 02:42:02;;;;;;;101.47;27.87;;;6.30;99.90;;;;;;5149462;27;20663;-58
2021/11/17 02:44:53;;;;;;;101.67;27.60;;;6.30;99.90;;;;;;5130217;27;20182;-59
2021/11/17 02:47:39;;;;;;;102.57;28.87;;;6.30;99.90;;;;;;5142133;27;20273;-58
2021/11/17 02:50:28;;;;;;;103.40;27.47;;;6.30;99.90;;;;;;5152898;27;20690;-57
2021/11/17 02:53:11;;;;;;;110.60;28.00;;;6.30;99.90;;;;;;5150309;27;20596;-58
2021/11/17 02:55:58;;;;;;;108.50;28.17;;;6.30;99.90;;;;;;5136852;27;20185;-59
2021/11/17 02:58:41;;;;;;;107.23;27.37;;;6.40;99.90;;;;;;5153439;27;20236;-58
2021/11/17 03:01:44;;;;;;;95.77;27.23;;;6.40;99.90;;;;;;5143412;27;20313;-58
2021/11/17 03:04:29;;;;;;;115.00;28.07;;;6.40;99.90;;;;;;5137294;27;20205;-59
2021/11/17 03:07:19;;;;;;;96.80;27.70;;;6.40;99.90;;;;;;5132267;27;20213;-58
2021/11/17 03:10:06;;;;;;;99.13;27.27;;;6.40;99.90;;;;;;5146602;27;20800;-59
2021/11/17 03:12:47;;;;;;;114.43;27.80;;;6.40;99.90;;;;;;5131629;27;20222;-58
2021/11/17 03:15:32;;;;;;;103.27;28.47;;;6.50;99.90;;;;;;5153098;27;20703;-58
2021/11/17 03:18:17;;;;;;;112.37;28.50;;;6.50;99.90;;;;;;5151153;27;20224;-58
2021/11/17 03:21:00;;;;;;;97.53;27.37;;;6.50;99.90;;;;;;5127278;27;20188;-56
2021/11/17 03:23:42;;;;;;;105.47;27.90;;;6.50;99.90;;;;;;5148729;27;20280;-58
2021/11/17 03:26:23;;;;;;;108.87;28.63;;;6.50;99.90;;;;;;5142517;27;20324;-57
2021/11/17 03:29:25;;;;;;;96.77;26.80;;;6.50;99.90;;;;;;5125574;27;20293;-59
2021/11/17 03:32:16;;;;;;;103.83;27.33;;;6.60;99.90;;;;;;5144085;27;20289;-58
2021/11/17 03:35:09;;;;;;;94.63;26.63;;;6.60;99.90;;;;;;5151508;27;20226;-59
2021/11/17 03:38:00;;;;;;;93.30;26.70;;;6.70;99.90;;;;;;5156631;27;20273;-58
2021/11/17 03:41:06;;;;;;;97.83;27.70;;;6.70;99.90;;;;;;5147308;27;20547;-58
2021/11/17 03:44:10;;;;;;;102.57;27.87;;;6.70;99.90;;;;;;5156667;27;20232;-58
2021/11/17 03:46:50;;;;;;;106.50;27.90;;;6.70;99.90;;;;;;5148726;27;20266;-59
2021/11/17 03:49:35;;;;;;;103.20;27.30;;;6.70;99.90;;;;;;5150980;27;20674;-58
2021/11/17 03:52:21;;;;;;;104.47;28.00;;;6.70;99.90;;;;;;5158531;27;20255;-58
2021/11/17 03:55:06;;;;;;;110.03;27.50;;;6.60;99.90;;;;;;5148450;27;20267;-59
2021/11/17 03:57:50;;;;;;;111.07;29.73;;;6.70;99.90;;;;;;5128886;27;20612;-56
2021/11/17 04:00:59;;;;;;;111.60;28.73;;;6.60;99.90;;;;;;5146014;27;20567;-58
2021/11/17 04:03:53;;;;;;;103.73;26.60;;;6.60;99.90;;;;;;5116361;27;20212;-58
2021/11/17 04:06:34;;;;;;;113.03;28.43;;;6.70;99.90;;;;;;5150346;27;20736;-59
2021/11/17 04:09:18;;;;;;;106.30;28.23;;;6.70;99.90;;;;;;5122698;27;20185;-59
2021/11/17 04:11:59;;;;;;;107.10;27.80;;;6.70;99.90;;;;;;5144786;27;20231;-59
2021/11/17 04:14:40;;;;;;;110.40;27.77;;;6.70;99.90;;;;;;5155734;27;20277;-59
2021/11/17 04:17:26;;;;;;;110.97;28.87;;;6.70;99.90;;;;;;5149306;27;20212;-59
2021/11/17 04:20:09;;;;;;;102.50;26.67;;;6.70;99.90;;;;;;5144176;27;20723;-59
2021/11/17 04:23:11;;;;;;;113.37;28.93;;;6.70;99.90;;;;;;5154034;27;20212;-59
2021/11/17 04:25:57;;;;;;;106.40;27.30;;;6.70;99.90;;;;;;5151050;27;20239;-59
2021/11/17 04:28:42;;;;;;;103.67;27.53;;;6.70;99.90;;;;;;5153872;27;20233;-58
2021/11/17 04:31:48;;;;;;;104.83;27.70;;;6.60;99.90;;;;;;5143592;27;21697;-58
2021/11/17 04:34:42;;;;;;;100.60;27.63;;;6.60;99.90;;;;;;5128745;27;20281;-58
2021/11/17 04:37:33;;;;;;;106.30;26.57;;;6.60;99.90;;;;;;5147514;27;20241;-56
2021/11/17 04:40:25;;;;;;;101.47;26.63;;;6.70;99.90;;;;;;5145355;27;20288;-58
2021/11/17 04:43:25;;;;;;;120.23;28.07;;;6.70;99.90;;;;;;5159486;27;20316;-58
2021/11/17 04:46:15;;;;;;;114.77;27.93;;;6.60;99.90;;;;;;5146647;27;20197;-58
2021/11/17 04:48:59;;;;;;;116.23;27.73;;;6.60;99.90;;;;;;5151199;27;20375;-58
2021/11/17 04:51:46;;;;;;;117.47;28.53;;;6.60;99.90;;;;;;5153448;27;20635;-58
2021/11/17 04:54:42;;;;;;;112.73;26.47;;;6.60;99.90;;;;;;5128559;27;20229;-58
2021/11/17 04:57:24;;;;;;;132.23;30.07;;;6.70;99.90;;;;;;5134418;27;20293;-58
2021/11/17 05:00:33;;;;;;;110.17;29.33;;;6.70;99.90;;;;;;5155795;27;20687;-58
2021/11/17 05:03:17;;;;;;;122.87;29.27;;;6.70;99.90;;;;;;5137621;27;20193;-58
2021/11/17 05:05:59;;;;;;;122.27;28.90;;;6.70;99.90;;;;;;5149628;27;20186;-58
2021/11/17 05:08:35;;;;;;;118.87;29.87;;;6.80;99.90;;;;;;5148967;27;20284;-59
2021/11/17 05:11:15;;;;;;;125.67;29.47;;;6.70;99.90;;;;;;5149031;27;20280;-58
2021/11/17 05:13:56;;;;;;;110.50;27.37;;;6.80;99.90;;;;;;5146718;27;20230;-59
2021/11/17 05:16:40;;;;;;;122.03;30.20;;;6.80;99.90;;;;;;5150425;27;20245;-57
2021/11/17 05:19:17;;;;;;;116.83;29.40;;;6.80;99.90;;;;;;5153301;27;20272;-59
2021/11/17 05:22:01;;;;;;;115.93;27.63;;;6.90;99.90;;;;;;5147329;27;20197;-58
2021/11/17 05:24:43;;;;;;;104.13;28.60;;;6.90;99.90;;;;;;5136248;27;20201;-59
2021/11/17 05:27:28;;;;;;;106.17;27.47;;;6.80;99.90;;;;;;5153754;27;20193;-59
2021/11/17 05:30:17;;;;;;;100.70;25.63;;;6.90;99.90;;;;;;5152011;27;20269;-58
2021/11/17 05:33:03;;;;;;;88.53;26.23;;;6.90;99.90;;;;;;5147418;27;20276;-59
2021/11/17 05:35:49;;;;;;;96.00;26.17;;;7.00;99.90;;;;;;5150097;27;20667;-58
2021/11/17 05:38:28;;;;;;;92.40;26.43;;;7.00;99.90;;;;;;5130349;27;20262;-59
2021/11/17 05:41:12;;;;;;;92.93;25.70;;;7.00;99.90;;;;;;5148739;27;20192;-59
2021/11/17 05:43:53;;;;;;;90.60;26.37;;;7.00;99.90;;;;;;5151927;27;20380;-58
2021/11/17 05:46:42;;;;;;;88.00;25.47;;;7.00;99.90;;;;;;5130261;27;20205;-59
2021/11/17 05:49:25;;;;;;;88.07;24.70;;;7.00;99.90;;;;;;5129087;27;20205;-58
2021/11/17 05:52:11;;;;;;;97.33;26.07;;;7.00;99.90;;;;;;5144100;27;20201;-59
2021/11/17 05:55:04;;;;;;;81.97;24.00;;;7.00;99.90;;;;;;5148378;27;20651;-59
2021/11/17 05:57:47;;;;;;;82.23;25.20;;;7.00;99.90;;;;;;5150333;27;20214;-59
2021/11/17 06:00:51;;;;;;;80.10;23.10;;;7.00;99.90;;;;;;5146066;27;20229;-58
2021/11/17 06:03:33;;;;;;;87.50;23.97;;;7.00;99.90;;;;;;5150978;27;20198;-59
2021/11/17 06:06:01;;;;;;;80.37;25.03;;;7.00;99.90;;;;;;5122367;27;20243;-59
2021/11/17 06:08:30;;;;;;;73.93;23.33;;;7.00;99.90;;;;;;5145857;27;20200;-59
2021/11/17 06:11:01;;;;;;;82.83;23.23;;;7.00;99.90;;;;;;5128347;27;20283;-59
2021/11/17 06:13:31;;;;;;;77.77;23.87;;;7.00;99.90;;;;;;5156739;27;20551;-59
2021/11/17 06:16:00;;;;;;;87.20;24.67;;;7.00;99.90;;;;;;5130016;27;20284;-59
2021/11/17 06:18:32;;;;;;;76.23;23.90;;;7.00;99.90;;;;;;5129594;27;20201;-59
2021/11/17 06:21:02;;;;;;;77.93;24.07;;;7.00;99.90;;;;;;5145437;27;20653;-59
2021/11/17 06:23:35;;;;;;;82.17;22.07;;;7.10;99.90;;;;;;5150528;27;20213;-59
2021/11/17 06:26:05;;;;;;;77.47;22.67;;;7.10;99.90;;;;;;5154025;27;20888;-59
2021/11/17 06:28:34;;;;;;;79.97;24.07;;;7.10;99.90;;;;;;5149118;27;20747;-59
2021/11/17 06:31:04;;;;;;;73.50;23.40;;;7.10;99.90;;;;;;5151759;27;20696;-58
2021/11/17 06:33:32;;;;;;;72.87;22.60;;;7.20;99.90;;;;;;5147399;27;20197;-57
2021/11/17 06:36:00;;;;;;;76.77;22.43;;;7.20;99.90;;;;;;5137359;27;20266;-58
2021/11/17 06:38:29;;;;;;;83.73;24.07;;;7.20;99.90;;;;;;5148045;27;20225;-58
2021/11/17 06:40:58;;;;;;;98.70;25.10;;;7.20;99.90;;;;;;5149162;27;20281;-58
2021/11/17 06:43:30;;;;;;;81.30;23.77;;;7.10;99.90;;;;;;5144343;27;20643;-59
2021/11/17 06:46:00;;;;;;;75.70;24.17;;;7.20;99.90;;;;;;5143062;27;20201;-59
2021/11/17 06:48:29;;;;;;;78.63;24.57;;;7.20;99.90;;;;;;5145140;27;20249;-58
2021/11/17 06:50:59;;;;;;;75.33;24.07;;;7.20;99.90;;;;;;5144685;27;20245;-58
2021/11/17 06:53:29;;;;;;;83.63;25.47;;;7.20;99.90;;;;;;5148568;27;20212;-58
2021/11/17 06:55:58;;;;;;;84.03;25.43;;;7.20;99.90;;;;;;5147461;27;20558;-59
2021/11/17 06:58:28;;;;;;;88.37;25.63;;;7.30;99.90;;;;;;5144442;27;20213;-59
2021/11/17 07:00:56;;;;;;;88.17;25.77;;;7.20;99.90;;;;;;5150210;27;20208;-58
2021/11/17 07:03:26;;;;;;;90.20;24.30;;;7.20;99.90;;;;;;5154570;27;20189;-59
2021/11/17 07:05:55;;;;;;;102.27;26.93;;;7.20;99.90;;;;;;5133354;27;20254;-59
2021/11/17 07:08:24;;;;;;;97.90;25.57;;;7.20;99.90;;;;;;5125646;27;20238;-58
2021/11/17 07:10:52;;;;;;;93.23;26.13;;;7.20;99.90;;;;;;5146762;27;20198;-58
2021/11/17 07:13:21;;;;;;;85.50;25.10;;;7.20;99.90;;;;;;5150267;27;20265;-58
2021/11/17 07:15:51;;;;;;;99.33;25.57;;;7.20;99.90;;;;;;5152394;27;20217;-59
2021/11/17 07:18:20;;;;;;;94.53;26.57;;;7.30;99.90;;;;;;5157233;27;20238;-58
2021/11/17 07:20:48;;;;;;;98.57;26.60;;;7.30;99.90;;;;;;5152050;27;20225;-58
2021/11/17 07:23:20;;;;;;;106.20;26.27;;;7.30;99.90;;;;;;5116520;27;20192;-58
2021/11/17 07:25:48;;;;;;;108.10;27.43;;;7.30;99.90;;;;;;5150394;27;20276;-58
2021/11/17 07:28:19;;;;;;;109.77;26.93;;;7.30;99.90;;;;;;5152286;27;20224;-56
2021/11/17 07:30:48;;;;;;;90.47;25.53;;;7.40;99.90;;;;;;5144169;27;20209;-59
2021/11/17 07:33:18;;;;;;;123.83;37.87;;;7.40;99.90;;;;;;5141119;27;20228;-58
2021/11/17 07:35:49;;;;;;;108.43;32.57;;;7.40;99.90;;;;;;5134074;27;20708;-58
2021/11/17 07:38:24;;;;;;;111.50;28.50;;;7.40;99.90;;;;;;5150500;27;20216;-59
2021/11/17 07:40:54;;;;;;;102.93;24.67;;;7.30;99.90;;;;;;5148706;27;20293;-59
2021/11/17 07:43:25;;;;;;;111.60;34.33;;;7.40;99.90;;;;;;5157546;27;20784;-58
2021/11/17 07:45:53;;;;;;;108.67;30.20;;;7.40;99.90;;;;;;5142388;27;20225;-58
2021/11/17 07:48:31;;;;;;;99.30;26.43;;;7.50;99.90;;;;;;5151905;27;20201;-59
2021/11/17 07:51:02;;;;;;;114.50;29.40;;;7.50;99.90;;;;;;5144322;27;20221;-58
2021/11/17 07:53:31;;;;;;;110.63;28.83;;;7.50;99.90;;;;;;5156549;27;20253;-58
2021/11/17 07:56:02;;;;;;;100.73;27.90;;;7.60;99.90;;;;;;5149815;27;20202;-58
2021/11/17 07:58:40;;;;;;;119.37;27.27;;;7.60;99.90;;;;;;5148978;27;20212;-57
2021/11/17 08:01:11;;;;;;;101.33;26.27;;;7.60;99.90;;;;;;5151610;27;20217;-57
2021/11/17 08:03:44;;;;;;;112.60;27.03;;;7.60;99.90;;;;;;5149689;27;20280;-59
2021/11/17 08:06:15;;;;;;;102.80;26.43;;;7.60;99.90;;;;;;5146171;27;20756;-58
2021/11/17 08:08:44;;;;;;;102.07;27.37;;;7.60;99.90;;;;;;5151356;27;20186;-59
2021/11/17 08:11:15;;;;;;;97.20;27.03;;;7.60;99.90;;;;;;5152353;27;20256;-59
2021/11/17 08:13:44;;;;;;;110.37;26.80;;;7.70;99.90;;;;;;5149279;27;20191;-58
2021/11/17 08:16:14;;;;;;;98.20;26.87;;;7.70;99.90;;;;;;5150684;27;20612;-58
2021/11/17 08:18:44;;;;;;;104.63;26.07;;;7.80;99.90;;;;;;5150457;27;20212;-58
2021/11/17 08:21:16;;;;;;;108.03;27.17;;;7.80;99.90;;;;;;5126565;27;20880;-56
2021/11/17 08:23:45;;;;;;;99.47;27.20;;;7.80;99.90;;;;;;5143779;27;20268;-59
2021/11/17 08:26:16;;;;;;;99.23;26.53;;;7.80;99.90;;;;;;5146914;27;20305;-59
2021/11/17 08:28:44;;;;;;;97.43;26.13;;;7.90;99.90;;;;;;5145208;27;20854;-58
2021/11/17 08:31:14;;;;;;;100.33;26.67;;;7.80;99.90;;;;;;5148904;27;20262;-57
2021/11/17 08:33:45;;;;;;;100.17;27.23;;;7.90;99.90;;;;;;5130622;27;20186;-58
2021/11/17 08:36:13;;;;;;;93.63;26.60;;;7.90;99.90;;;;;;5134133;27;20185;-59
2021/11/17 08:38:42;;;;;;;102.80;27.23;;;7.90;99.90;;;;;;5157004;27;20217;-59
2021/11/17 08:41:13;;;;;;;103.63;26.90;;;7.90;99.90;;;;;;5151110;27;20224;-59
2021/11/17 08:43:42;;;;;;;95.93;27.17;;;7.90;99.90;;;;;;5151001;27;20252;-59
2021/11/17 08:46:13;;;;;;;103.10;27.33;;;8.10;99.90;;;;;;5151318;27;20193;-57
2021/11/17 08:48:42;;;;;;;93.00;26.90;;;8.10;99.90;;;;;;5151735;27;20198;-58
2021/11/17 08:51:14;;;;;;;93.13;26.67;;;8.10;99.90;;;;;;5151632;27;20280;-59
2021/11/17 08:53:45;;;;;;;89.70;27.93;;;8.10;99.90;;;;;;5153829;27;20186;-58
2021/11/17 08:56:14;;;;;;;98.40;27.87;;;8.10;99.90;;;;;;5141809;27;20208;-59
2021/11/17 08:58:44;;;;;;;93.23;26.83;;;8.20;99.90;;;;;;5157958;27;20237;-59
2021/11/17 09:01:14;;;;;;;98.57;28.83;;;8.30;99.90;;;;;;5150647;27;20202;-59
2021/11/17 09:03:43;;;;;;;99.07;28.17;;;8.40;99.90;;;;;;5147556;27;20227;-59
2021/11/17 09:06:14;;;;;;;89.87;27.37;;;8.40;99.90;;;;;;5145317;27;20286;-59
2021/11/17 09:08:43;;;;;;;102.87;29.00;;;8.40;99.90;;;;;;5126671;27;21043;-59
2021/11/17 09:11:14;;;;;;;99.80;33.27;;;8.40;99.90;;;;;;5146307;27;20252;-59
2021/11/17 09:13:42;;;;;;;81.70;26.93;;;8.50;99.90;;;;;;5125362;27;20190;-59
2021/11/17 09:16:10;;;;;;;89.77;28.67;;;8.60;99.90;;;;;;5149259;27;20189;-59
2021/11/17 09:18:40;;;;;;;90.37;28.37;;;8.60;99.90;;;;;;5128161;27;20275;-59
2021/11/17 09:21:13;;;;;;;95.83;31.30;;;8.70;99.90;;;;;;5131250;27;20240;-59
2021/11/17 09:23:42;;;;;;;98.57;29.47;;;8.80;99.90;;;;;;5146337;27;20222;-59
2021/11/17 09:26:11;;;;;;;93.37;29.37;;;8.90;99.90;;;;;;5128769;27;20675;-59
2021/11/17 09:28:40;;;;;;;89.50;29.53;;;9.00;99.90;;;;;;5149824;27;20201;-59
2021/11/17 09:31:09;;;;;;;92.33;34.40;;;9.10;99.90;;;;;;5146743;27;20828;-59
2021/11/17 09:33:43;;;;;;;92.17;30.80;;;9.20;99.90;;;;;;5156370;27;20264;-59
2021/11/17 09:36:15;;;;;;;82.30;31.57;;;9.20;99.90;;;;;;5154366;27;20177;-59
2021/11/17 09:38:44;;;;;;;84.20;30.57;;;9.30;99.90;;;;;;5146354;27;20268;-58
2021/11/17 09:41:15;;;;;;;80.73;27.73;;;9.30;99.90;;;;;;5135946;27;21763;-59
2021/11/17 09:43:46;;;;;;;73.27;28.00;;;9.30;99.90;;;;;;5147789;27;20240;-59
2021/11/17 09:46:19;;;;;;;77.80;29.37;;;9.40;99.90;;;;;;5144941;27;20193;-58
2021/11/17 09:48:50;;;;;;;68.33;27.40;;;9.40;99.90;;;;;;5146754;27;20193;-59
2021/11/17 09:51:22;;;;;;;68.03;27.33;;;9.40;99.90;;;;;;5148051;27;20276;-57
2021/11/17 09:53:54;;;;;;;74.03;27.33;;;9.40;99.90;;;;;;5147589;27;20189;-59
2021/11/17 09:56:31;;;;;;;69.70;26.97;;;9.50;99.90;;;;;;5127740;27;20223;-58
2021/11/17 09:59:03;;;;;;;73.80;28.20;;;9.50;99.90;;;;;;5147775;27;20206;-58
2021/11/17 10:01:39;;;;;;;67.30;28.87;;;9.50;99.90;;;;;;5152238;27;20217;-58
2021/11/17 10:04:14;;;;;;;66.10;27.53;;;9.60;99.90;;;;;;5151728;27;20558;-56
2021/11/17 10:15:15;;;;;;;69.77;27.67;;;9.70;99.90;;;;;;5145276;27;20193;-57
2021/11/17 10:17:47;;;;;;;71.00;28.40;;;9.70;99.90;;;;;;5157243;27;20202;-58
2021/11/17 10:20:35;;;;;;;70.57;29.13;;;9.70;99.90;;;;;;5156383;27;20296;-58
2021/11/17 10:23:19;;;;;;;75.67;28.60;;;9.70;99.90;;;;;;5153943;27;20210;-56
2021/11/17 10:25:52;;;;;;;71.87;28.23;;;9.80;99.90;;;;;;5152916;27;20273;-58
2021/11/17 10:28:28;;;;;;;62.10;27.57;;;9.80;99.90;;;;;;5149248;27;20194;-57
2021/11/17 10:31:05;;;;;;;62.20;27.63;;;9.90;99.90;;;;;;5157173;27;20224;-59
2021/11/17 10:33:58;;;;;;;58.60;26.83;;;9.90;99.90;;;;;;5134650;27;20718;-58
2021/11/17 10:36:30;;;;;;;62.77;26.80;;;9.90;99.90;;;;;;5132284;27;20592;-58
2021/11/17 10:39:10;;;;;;;71.93;27.70;;;10.00;99.90;;;;;;5135685;27;20280;-58
2021/11/17 10:41:49;;;;;;;59.90;26.43;;;10.00;99.90;;;;;;5154771;27;20323;-58
2021/11/17 10:44:17;;;;;;;58.57;27.17;;;10.00;99.90;;;;;;5153507;27;20239;-55
2021/11/17 10:46:51;;;;;;;61.17;26.50;;;9.90;99.90;;;;;;5149063;27;20557;-58
2021/11/17 10:49:26;;;;;;;60.43;28.77;;;9.90;99.90;;;;;;5152438;27;20201;-59
2021/11/17 10:51:58;;;;;;;61.43;27.90;;;10.00;99.90;;;;;;5150008;27;20659;-58
2021/11/17 10:54:30;;;;;;;65.13;28.47;;;10.00;99.90;;;;;;5144526;27;20280;-58
2021/11/17 10:57:03;;;;;;;64.63;27.90;;;10.00;99.90;;;;;;5121551;27;20778;-58
2021/11/17 10:59:33;;;;;;;52.77;26.80;;;10.00;99.90;;;;;;5152264;27;20232;-58
2021/11/17 11:02:02;;;;;;;54.23;26.90;;;10.10;99.90;;;;;;5134664;27;20236;-58
2021/11/17 11:04:38;;;;;;;58.90;27.90;;;10.10;99.90;;;;;;5153427;27;20236;-58
2021/11/17 11:07:12;;;;;;;56.50;26.70;;;10.20;99.90;;;;;;5156024;27;20272;-57
2021/11/17 11:09:46;;;;;;;54.20;26.43;;;10.30;99.90;;;;;;5151252;27;20291;-58
2021/11/17 11:12:17;;;;;;;52.27;26.30;;;10.30;99.90;;;;;;5149807;27;20662;-58
2021/11/17 11:14:56;;;;;;;49.83;25.90;;;10.40;99.90;;;;;;5153112;27;20262;-58
2021/11/17 11:17:32;;;;;;;49.30;25.23;;;10.60;99.90;;;;;;5136685;27;20193;-59
2021/11/17 11:20:32;;;;;;;46.83;23.93;;;10.60;99.90;;;;;;5153599;27;20205;-58
2021/11/17 11:23:15;;;;;;;45.70;24.27;;;10.70;99.90;;;;;;5149508;27;20956;-59
2021/11/17 11:25:58;;;;;;;48.57;22.70;;;10.80;99.90;;;;;;5143343;27;20223;-59
2021/11/17 11:28:32;;;;;;;45.77;23.43;;;11.00;99.90;;;;;;5150458;27;20280;-58
2021/11/17 11:31:41;;;;;;;41.40;21.63;;;11.10;99.90;;;;;;5150135;27;20246;-58
2021/11/17 11:34:34;;;;;;;40.13;21.63;;;11.20;99.90;;;;;;5143337;27;20280;-58
2021/11/17 11:37:04;;;;;;;38.40;21.40;;;11.30;99.90;;;;;;5128821;27;20194;-57
2021/11/17 11:39:42;;;;;;;37.17;20.83;;;11.40;99.90;;;;;;5126541;27;20289;-58
2021/11/17 11:42:43;;;;;;;35.77;19.77;;;11.60;99.90;;;;;;5149307;27;20208;-58
2021/11/17 11:45:48;;;;;;;36.67;19.63;;;11.80;99.90;;;;;;5143693;27;20213;-58
2021/11/17 11:48:54;;;;;;;33.70;18.70;;;11.80;99.90;;;;;;5067162;28;20281;-59
2021/11/17 11:51:59;;;;;;;32.50;18.40;;;11.80;99.90;;;;;;5063842;28;20234;-58
2021/11/17 11:54:30;;;;;;;31.23;17.63;;;11.80;99.90;;;;;;5150858;27;20621;-58
2021/11/17 11:57:29;;;;;;;32.50;18.07;;;11.80;99.90;;;;;;5138393;27;20279;-58
2021/11/17 12:00:00;;;;;;;29.93;17.40;;;11.80;99.90;;;;;;5123173;27;20212;-56
2021/11/17 12:02:35;;;;;;;31.47;18.03;;;11.90;99.90;;;;;;5145209;27;20200;-59
2021/11/17 12:05:07;;;;;;;31.50;17.20;;;12.00;99.90;;;;;;5149436;27;20593;-59
2021/11/17 12:07:42;;;;;;;31.73;17.03;;;12.10;99.90;;;;;;5128849;27;20201;-59
2021/11/17 12:10:13;;;;;;;26.53;15.17;;;12.30;99.90;;;;;;5145594;27;20220;-58
2021/11/17 12:12:43;;;;;;;27.63;16.83;;;12.30;99.90;;;;;;5146101;27;20193;-58
2021/11/17 12:15:24;;;;;;;26.70;16.27;;;12.40;99.90;;;;;;5148796;27;20844;-58
2021/11/17 12:18:09;;;;;;;24.87;14.37;;;12.50;99.90;;;;;;5148367;27;20201;-58
2021/11/17 12:20:42;;;;;;;23.50;15.43;;;12.50;99.90;;;;;;5139091;27;20288;-58
2021/11/17 12:23:21;;;;;;;24.60;13.37;;;12.50;99.90;;;;;;5144247;27;20194;-59
2021/11/17 12:26:07;;;;;;;24.20;14.70;;;12.60;99.90;;;;;;5151578;27;20200;-60
2021/11/17 12:28:45;;;;;;;22.67;14.53;;;12.60;99.90;;;;;;5150331;27;20220;-59
2021/11/17 12:31:19;;;;;;;22.73;13.03;;;12.70;99.90;;;;;;5142203;27;20185;-58
2021/11/17 12:33:52;;;;;;;33.43;15.97;;;12.60;99.90;;;;;;5131701;27;20660;-59
2021/11/17 12:36:24;;;;;;;24.47;13.87;;;12.60;99.90;;;;;;5142629;27;20254;-58
2021/11/17 12:38:54;;;;;;;26.53;13.03;;;12.40;99.90;;;;;;5152445;27;20287;-58
2021/11/17 12:41:30;;;;;;;23.90;12.97;;;12.50;99.90;;;;;;5126531;27;20212;-58
2021/11/17 12:44:02;;;;;;;26.57;12.97;;;12.70;99.90;;;;;;5143562;27;20217;-59
2021/11/17 12:46:38;;;;;;;22.57;12.23;;;12.70;99.90;;;;;;5130600;27;20663;-59
2021/11/17 12:49:29;;;;;;;19.23;9.67;;;12.90;99.90;;;;;;5148326;27;20182;-59
2021/11/17 12:52:04;;;;;;;19.67;9.83;;;13.00;99.90;;;;;;5150600;27;20211;-59
2021/11/17 12:54:50;;;;;;;18.93;9.57;;;12.90;99.90;;;;;;5147651;27;20202;-59
2021/11/17 12:57:22;;;;;;;18.20;10.07;;;12.80;99.90;;;;;;5153027;27;20193;-57
2021/11/17 12:59:55;;;;;;;21.03;9.67;;;12.60;99.90;;;;;;5129514;27;20679;-59
2021/11/17 13:02:43;;;;;;;19.43;8.70;;;12.40;99.90;;;;;;5126914;27;20280;-59
2021/11/17 13:05:27;;;;;;;15.47;8.17;;;12.30;99.90;;;;;;5154691;27;20216;-58
2021/11/17 13:07:59;;;;;;;20.00;7.63;;;12.10;99.90;;;;;;5126325;27;20571;-57
2021/11/17 13:10:35;;;;;;;13.03;6.97;;;12.10;99.90;;;;;;5152462;27;20253;-57
2021/11/17 13:13:11;;;;;;;15.47;6.60;;;12.00;99.90;;;;;;5128639;27;20200;-59
2021/11/17 13:15:43;;;;;;;17.40;7.40;;;12.00;99.90;;;;;;5146524;27;20658;-59
2021/11/17 13:18:27;;;;;;;20.40;6.83;;;12.00;99.90;;;;;;5123488;27;20228;-57
2021/11/17 13:21:16;;;;;;;25.20;9.30;;;12.00;99.90;;;;;;5140475;27;20655;-57
2021/11/17 13:23:47;;;;;;;22.00;8.43;;;12.00;99.90;;;;;;5147706;27;20317;-58
2021/11/17 13:26:27;;;;;;;12.40;6.00;;;12.00;99.90;;;;;;5147158;27;20263;-58
2021/11/17 13:28:56;;;;;;;20.33;6.23;;;12.00;99.90;;;;;;5154632;27;20196;-58
2021/11/17 13:31:31;;;;;;;22.33;7.70;;;12.00;99.90;;;;;;5146817;27;20597;-59
2021/11/17 13:34:01;;;;;;;14.03;5.30;;;12.00;99.90;;;;;;5150868;27;20196;-59
2021/11/17 13:36:47;;;;;;;16.67;5.80;;;12.00;99.90;;;;;;5144317;27;20655;-59
2021/11/17 13:39:18;;;;;;;11.90;5.33;;;12.10;99.90;;;;;;5143669;27;20208;-58
2021/11/17 13:41:50;;;;;;;15.57;6.83;;;12.10;99.90;;;;;;5142037;27;20220;-57
2021/11/17 13:44:20;;;;;;;9.43;4.10;;;12.10;99.90;;;;;;5151485;27;20233;-58
2021/11/17 13:46:55;;;;;;;13.73;4.00;;;12.10;99.90;;;;;;5153526;27;21153;-59
2021/11/17 13:49:24;;;;;;;13.13;3.97;;;12.10;99.90;;;;;;5147225;27;20193;-58
2021/11/17 13:51:54;;;;;;;9.73;3.93;;;12.10;99.90;;;;;;5145044;27;21151;-57
2021/11/17 13:54:24;;;;;;;19.77;4.33;;;12.10;99.90;;;;;;5128097;27;20231;-59
2021/11/17 13:56:53;;;;;;;10.23;3.77;;;12.00;99.90;;;;;;5140404;27;20201;-57
2021/11/17 13:59:24;;;;;;;12.33;4.63;;;12.00;99.90;;;;;;5152039;27;20609;-58
2021/11/17 14:01:56;;;;;;;12.03;4.77;;;12.00;99.90;;;;;;5125228;27;20295;-58
2021/11/17 14:04:26;;;;;;;12.37;4.23;;;12.00;99.90;;;;;;5153458;27;20185;-59
2021/11/17 14:06:57;;;;;;;14.53;4.20;;;11.90;99.90;;;;;;5153715;27;20194;-58
2021/11/17 14:09:27;;;;;;;15.97;4.70;;;11.90;99.90;;;;;;5151194;27;20276;-58
2021/11/17 14:11:56;;;;;;;16.63;4.23;;;11.90;99.90;;;;;;5141181;27;20218;-58
2021/11/17 14:14:25;;;;;;;18.57;5.57;;;11.80;99.90;;;;;;5156364;27;20217;-59
2021/11/17 14:16:54;;;;;;;12.33;4.00;;;11.80;99.90;;;;;;5158071;27;20888;-58
2021/11/17 14:19:25;;;;;;;15.77;4.63;;;11.60;99.90;;;;;;5131293;27;20191;-58
2021/11/17 14:21:55;;;;;;;19.97;5.53;;;11.60;99.90;;;;;;5130480;27;20297;-58
2021/11/17 14:24:24;;;;;;;12.70;3.90;;;11.50;99.90;;;;;;5153246;27;20240;-57
2021/11/17 14:26:54;;;;;;;18.27;4.30;;;11.40;99.90;;;;;;5132760;27;20615;-58
2021/11/17 14:29:29;;;;;;;15.63;4.63;;;11.40;99.90;;;;;;5140137;27;20198;-58
2021/11/17 14:32:02;;;;;;;12.90;3.77;;;11.30;99.90;;;;;;5149320;27;20592;-58
2021/11/17 14:34:31;;;;;;;14.50;4.30;;;11.20;99.90;;;;;;5131331;27;20186;-58
2021/11/17 14:37:04;;;;;;;14.93;4.00;;;11.10;99.90;;;;;;5147587;27;20193;-59
2021/11/17 14:39:34;;;;;;;16.73;5.43;;;11.10;99.90;;;;;;5156388;27;20197;-57
2021/11/17 14:42:03;;;;;;;15.20;3.53;;;11.10;99.90;;;;;;5155967;27;20304;-58
2021/11/17 14:44:32;;;;;;;13.33;3.87;;;11.10;99.90;;;;;;5136710;27;20177;-57
2021/11/17 14:47:01;;;;;;;11.13;3.33;;;11.10;99.90;;;;;;5149966;27;20253;-58
2021/11/17 14:49:31;;;;;;;10.30;2.97;;;11.10;99.90;;;;;;5144354;27;20198;-57
2021/11/17 14:52:03;;;;;;;11.40;3.37;;;11.10;99.90;;;;;;5155343;27;20207;-58
2021/11/17 14:54:32;;;;;;;10.83;3.33;;;11.10;99.90;;;;;;5149920;27;21221;-58
2021/11/17 14:57:01;;;;;;;13.70;4.00;;;11.10;99.90;;;;;;5152991;27;20607;-58
2021/11/17 14:59:29;;;;;;;16.30;5.17;;;11.00;99.90;;;;;;5149334;27;20204;-58
2021/11/17 15:01:58;;;;;;;10.87;4.07;;;11.00;99.90;;;;;;5136076;27;20205;-55
2021/11/17 15:04:27;;;;;;;11.93;4.33;;;11.00;99.90;;;;;;5148548;27;20201;-57
2021/11/17 15:06:56;;;;;;;11.13;3.30;;;10.90;99.90;;;;;;5116166;27;20197;-58
2021/11/17 15:09:26;;;;;;;14.93;3.43;;;10.90;99.90;;;;;;5126903;27;20285;-58
2021/11/17 15:11:58;;;;;;;13.73;4.47;;;10.80;99.90;;;;;;5145156;27;20217;-58
2021/11/17 15:14:31;;;;;;;12.90;4.00;;;10.70;99.90;;;;;;5147276;27;20695;-58
2021/11/17 15:16:59;;;;;;;13.87;3.77;;;10.70;99.90;;;;;;5132786;27;20209;-58
2021/11/17 15:19:28;;;;;;;16.70;4.00;;;10.60;99.90;;;;;;5129504;27;20212;-58
2021/11/17 15:21:57;;;;;;;15.93;3.97;;;10.50;99.90;;;;;;5162981;27;20190;-58
2021/11/17 15:24:31;;;;;;;17.03;3.87;;;10.50;99.90;;;;;;5127338;27;20682;-59
2021/11/17 15:27:02;;;;;;;14.10;4.20;;;10.40;99.90;;;;;;5147996;27;20197;-58
2021/11/17 15:29:31;;;;;;;13.47;3.83;;;10.30;99.90;;;;;;5149779;27;20185;-58
2021/11/17 15:32:00;;;;;;;12.80;4.37;;;10.20;99.90;;;;;;5150425;27;20579;-59
2021/11/17 15:34:28;;;;;;;15.63;5.33;;;10.20;99.90;;;;;;5156197;27;20238;-59
2021/11/17 15:36:56;;;;;;;10.20;3.33;;;10.10;99.90;;;;;;5143836;27;20198;-57
2021/11/17 15:39:25;;;;;;;15.27;4.53;;;10.00;99.90;;;;;;5144964;27;20201;-58
2021/11/17 15:41:55;;;;;;;14.13;6.37;;;9.90;99.90;;;;;;5154770;27;20332;-56
2021/11/17 15:44:23;;;;;;;15.63;7.17;;;9.90;99.90;;;;;;5142801;27;20232;-58
2021/11/17 15:46:55;;;;;;;15.30;5.40;;;9.80;99.90;;;;;;5150769;27;20252;-58
2021/11/17 15:49:25;;;;;;;16.67;6.30;;;9.70;99.90;;;;;;5148344;27;20189;-58
2021/11/17 15:51:54;;;;;;;16.57;5.50;;;9.50;99.90;;;;;;5148179;27;20258;-59
2021/11/17 15:54:23;;;;;;;18.40;6.63;;;9.50;99.90;;;;;;5144330;27;20238;-58
2021/11/17 15:56:52;;;;;;;17.03;4.97;;;9.40;99.90;;;;;;5149040;27;20229;-58